Time;durP1;ratioP1;P1;durP2;ratioP2;P2;SDS_P1;SDS_P2;PMS_P1;PMS_P2;Temp;Humidity;BMP_temperature;BMP_pressure;BME280_temperature;BME280_humidity;BME280_pressure;Samples;Min_cycle;Max_cycle;Signal;HPM_P1;HPM_P2
2021/11/06 00:01:35;;;;;;;60.73;34.65;;;;;;;14.01;100.00;101187.81;1722076;83;21357;-58
2021/11/06 00:04:42;;;;;;;55.23;33.85;;;;;;;13.98;100.00;101186.80;1716085;83;21191;-58
2021/11/06 00:07:49;;;;;;;53.98;33.53;;;;;;;13.96;100.00;101190.25;1705778;84;21369;-59
2021/11/06 00:10:54;;;;;;;52.85;32.15;;;;;;;13.96;100.00;101188.00;1706619;83;21337;-57
2021/11/06 00:14:00;;;;;;;56.90;33.90;;;;;;;13.96;100.00;101181.12;1705676;83;21258;-58
2021/11/06 00:17:07;;;;;;;52.95;34.80;;;;;;;13.94;100.00;101173.58;1705934;83;21219;-60
2021/11/06 00:20:14;;;;;;;59.73;35.92;;;;;;;13.91;100.00;101173.91;1719816;80;21902;-59
2021/11/06 00:23:20;;;;;;;55.17;35.20;;;;;;;13.90;100.00;101172.20;1758176;81;21745;-57
2021/11/06 00:26:26;;;;;;;54.65;32.00;;;;;;;13.89;100.00;101176.00;1750572;82;21346;-58
2021/11/06 00:29:33;;;;;;;52.90;33.00;;;;;;;13.88;100.00;101171.52;1750632;82;21208;-57
2021/11/06 00:32:39;;;;;;;53.20;33.25;;;;;;;13.88;100.00;101176.52;1751182;82;21394;-57
2021/11/06 00:35:46;;;;;;;54.50;32.90;;;;;;;13.87;100.00;101170.67;1751183;82;21370;-57
2021/11/06 00:38:53;;;;;;;56.65;34.05;;;;;;;13.88;100.00;101173.76;1751206;82;21816;-58
2021/11/06 00:42:02;;;;;;;55.48;33.02;;;;;;;13.88;100.00;101163.25;1750978;82;21402;-58
2021/11/06 00:45:08;;;;;;;54.35;33.25;;;;;;;13.86;100.00;101158.47;1751206;82;21350;-58
2021/11/06 00:48:16;;;;;;;52.25;32.78;;;;;;;13.83;100.00;101154.67;1751184;82;21831;-58
2021/11/06 00:51:22;;;;;;;52.88;32.67;;;;;;;13.83;100.00;101157.42;1751205;82;21342;-58
2021/11/06 00:54:28;;;;;;;54.48;33.35;;;;;;;13.80;100.00;101142.64;1751213;82;21213;-58
2021/11/06 00:57:34;;;;;;;50.92;31.45;;;;;;;13.78;100.00;101143.36;1751218;82;21849;-58
2021/11/06 01:00:39;;;;;;;49.70;31.25;;;;;;;13.76;100.00;101139.92;1751286;82;21157;-58
2021/11/06 01:03:46;;;;;;;53.08;33.33;;;;;;;13.74;100.00;101140.61;1750857;82;21403;-58
2021/11/06 01:06:52;;;;;;;48.00;31.60;;;;;;;13.73;100.00;101136.16;1750995;82;21872;-57
2021/11/06 01:09:58;;;;;;;44.60;30.25;;;;;;;13.72;100.00;101135.79;1750341;82;21204;-58
2021/11/06 01:13:04;;;;;;;53.90;32.73;;;;;;;13.71;100.00;101132.71;1750444;82;21991;-58
2021/11/06 01:16:10;;;;;;;55.50;32.03;;;;;;;13.67;100.00;101136.87;1750791;82;21315;-58
2021/11/06 01:19:16;;;;;;;50.28;31.93;;;;;;;13.67;100.00;101135.50;1750223;82;21352;-58
2021/11/06 01:22:21;;;;;;;48.33;31.20;;;;;;;13.64;100.00;101131.73;1758975;79;21331;-58
2021/11/06 01:25:27;;;;;;;49.13;31.12;;;;;;;13.65;100.00;101127.92;1761515;81;21188;-58
2021/11/06 01:28:32;;;;;;;45.58;29.80;;;;;;;13.66;100.00;101135.13;1761085;81;21215;-58
2021/11/06 01:31:38;;;;;;;47.90;30.77;;;;;;;13.65;100.00;101129.30;1761396;81;21326;-59
2021/11/06 01:34:44;;;;;;;47.35;30.97;;;;;;;13.66;100.00;101133.76;1762090;81;21243;-58
2021/11/06 01:37:49;;;;;;;47.30;30.02;;;;;;;13.65;100.00;101130.17;1762275;81;21195;-58
2021/11/06 01:40:55;;;;;;;44.38;29.63;;;;;;;13.65;100.00;101123.30;1762145;81;21251;-57
2021/11/06 01:44:02;;;;;;;49.27;31.77;;;;;;;13.65;100.00;101124.66;1762178;81;21354;-58
2021/11/06 01:47:10;;;;;;;57.75;34.80;;;;;;;13.63;100.00;101121.23;1762183;81;21824;-59
2021/11/06 01:50:18;;;;;;;59.10;34.95;;;;;;;13.60;100.00;101114.70;1762088;81;21386;-58
2021/11/06 01:53:25;;;;;;;52.00;31.87;;;;;;;13.55;100.00;101115.75;1761935;81;21721;-58
2021/11/06 01:56:32;;;;;;;53.40;31.93;;;;;;;13.52;100.00;101126.57;1761278;81;21211;-59
2021/11/06 01:59:38;;;;;;;54.90;33.25;;;;;;;13.52;100.00;101129.86;1761518;81;21192;-58
2021/11/06 02:02:47;;;;;;;48.35;30.72;;;;;;;13.51;100.00;101126.24;1762134;81;21204;-58
2021/11/06 02:05:54;;;;;;;53.95;32.78;;;;;;;13.51;100.00;101125.37;1761904;81;21209;-58
2021/11/06 02:08:59;;;;;;;46.77;30.32;;;;;;;13.52;100.00;101127.11;1761608;81;21219;-58
2021/11/06 02:12:04;;;;;;;46.88;30.82;;;;;;;13.52;100.00;101121.61;1761573;81;21907;-58
2021/11/06 02:15:11;;;;;;;51.00;31.68;;;;;;;13.52;100.00;101126.57;1761691;81;21673;-58
2021/11/06 02:18:18;;;;;;;47.98;30.75;;;;;;;13.53;100.00;101124.19;1761809;81;21401;-59
2021/11/06 02:21:24;;;;;;;48.45;29.85;;;;;;;13.52;100.00;101126.57;1762247;81;21330;-59
2021/11/06 06:53:25;;;;;;;12.95;7.53;;;;;;;12.16;100.00;101337.98;1652816;81;21745;-58
2021/11/06 06:56:32;;;;;;;29.32;13.85;;;;;;;11.93;99.49;101358.73;1677605;85;21358;-59
2021/11/06 06:59:39;;;;;;;13.78;8.70;;;;;;;11.77;98.74;101343.52;1677521;85;21915;-58
2021/11/06 07:02:45;;;;;;;10.08;6.25;;;;;;;11.69;98.37;101347.58;1677427;84;21420;-57
2021/11/06 07:05:51;;;;;;;9.43;5.85;;;;;;;11.61;98.10;101346.97;1675838;85;21473;-58
2021/11/06 07:08:59;;;;;;;7.67;5.65;;;;;;;11.52;98.19;101351.17;1675949;85;21405;-58
2021/11/06 07:12:07;;;;;;;7.40;5.42;;;;;;;11.47;98.27;101370.84;1676019;85;21276;-58
2021/11/06 07:15:16;;;;;;;7.55;5.35;;;;;;;11.42;98.21;101362.23;1675790;85;21256;-58
2021/11/06 07:18:25;;;;;;;7.92;5.28;;;;;;;11.36;98.24;101359.25;1650468;85;21386;-58
2021/11/06 07:21:32;;;;;;;6.75;5.08;;;;;;;11.30;98.26;101372.22;1675350;85;21204;-58
2021/11/06 07:24:37;;;;;;;8.15;5.72;;;;;;;11.23;98.32;101340.95;1675449;85;21275;-57
2021/11/06 07:27:44;;;;;;;6.22;4.95;;;;;;;11.21;98.38;101357.56;1642662;87;21406;-58
2021/11/06 07:30:51;;;;;;;7.90;5.37;;;;;;;11.19;98.32;101358.75;1623253;87;21399;-58
2021/11/06 07:33:56;;;;;;;6.22;4.97;;;;;;;11.17;98.43;101358.03;1651036;85;21434;-58
2021/11/06 07:37:02;;;;;;;7.72;5.47;;;;;;;11.19;98.64;101347.79;1650693;85;21329;-57
2021/11/06 07:40:08;;;;;;;6.37;4.75;;;;;;;11.21;98.69;101366.31;1650615;86;21282;-58
2021/11/06 07:43:14;;;;;;;5.05;3.90;;;;;;;11.21;98.55;101375.38;1650526;85;21421;-58
2021/11/06 07:46:19;;;;;;;5.50;3.52;;;;;;;11.20;98.34;101385.13;1651032;86;21326;-58
2021/11/06 07:49:25;;;;;;;7.17;2.70;;;;;;;11.16;97.71;101390.58;1650947;87;21365;-58
2021/11/06 07:52:30;;;;;;;4.22;2.80;;;;;;;11.05;95.48;101402.60;1651724;85;21409;-57
2021/11/06 07:55:38;;;;;;;4.95;2.60;;;;;;;10.98;94.12;101422.56;1653543;83;21937;-59
2021/11/06 07:58:46;;;;;;;5.05;3.20;;;;;;;10.91;92.78;101411.88;1653666;85;21906;-58
2021/11/06 08:01:52;;;;;;;5.33;3.12;;;;;;;10.86;91.88;101421.89;1681601;84;21788;-58
2021/11/06 08:04:58;;;;;;;4.33;3.00;;;;;;;10.80;91.18;101417.03;1675625;85;21237;-58
2021/11/06 08:08:03;;;;;;;5.65;3.80;;;;;;;10.77;90.66;101421.45;1672633;84;21300;-58
2021/11/06 08:11:10;;;;;;;4.50;3.20;;;;;;;10.73;90.29;101424.65;1672773;85;21209;-59
2021/11/06 08:14:16;;;;;;;5.08;3.72;;;;;;;10.68;90.02;101433.32;1646939;87;21236;-57
2021/11/06 08:17:22;;;;;;;4.67;3.62;;;;;;;10.58;89.49;101434.39;1646959;85;21255;-57
2021/11/06 08:20:29;;;;;;;6.40;3.80;;;;;;;10.53;89.63;101444.39;1620843;88;21386;-59
2021/11/06 08:23:34;;;;;;;6.53;3.95;;;;;;;10.53;89.93;101446.63;1660262;85;21284;-59
2021/11/06 08:26:41;;;;;;;5.20;3.83;;;;;;;10.53;90.00;101446.63;1673849;85;21191;-59
2021/11/06 08:29:48;;;;;;;6.37;4.12;;;;;;;10.58;90.27;101445.34;1674134;85;21233;-59
2021/11/06 08:32:54;;;;;;;4.85;3.70;;;;;;;10.62;90.24;101444.01;1672679;84;21753;-58
2021/11/06 08:35:59;;;;;;;7.45;4.12;;;;;;;10.62;90.06;101448.12;1673221;85;21755;-58
2021/11/06 08:39:05;;;;;;;6.92;4.10;;;;;;;10.65;90.09;101446.45;1674354;84;21269;-59
2021/11/06 08:42:12;;;;;;;5.70;3.80;;;;;;;10.69;90.18;101443.78;1674914;84;21241;-58
2021/11/06 08:45:20;;;;;;;6.37;4.50;;;;;;;10.72;89.99;101455.80;1674955;85;21238;-59
2021/11/06 08:48:26;;;;;;;5.45;4.33;;;;;;;10.73;89.98;101443.81;1675178;84;21321;-58
2021/11/06 08:51:34;;;;;;;5.47;3.95;;;;;;;10.78;90.11;101423.69;1674696;85;21232;-58
2021/11/06 08:54:40;;;;;;;6.78;4.15;;;;;;;10.84;89.96;101428.55;1674710;85;21222;-58
2021/11/06 08:57:46;;;;;;;7.47;4.12;;;;;;;10.89;89.77;101430.34;1678039;82;21191;-58
2021/11/06 09:00:53;;;;;;;7.35;4.60;;;;;;;10.85;89.12;101441.22;1676825;85;21732;-59
2021/11/06 09:03:58;;;;;;;32.10;13.28;;;;;;;10.79;89.02;101448.69;1677204;84;21250;-57
2021/11/06 09:07:04;;;;;;;26.90;12.43;;;;;;;10.77;89.15;101450.20;1676773;84;21353;-58
2021/11/06 09:10:14;;;;;;;17.90;8.75;;;;;;;10.79;89.23;101461.88;1677237;85;21704;-57
2021/11/06 09:13:19;;;;;;;11.75;7.62;;;;;;;10.84;89.43;101465.53;1679809;84;21227;-59
2021/11/06 09:16:27;;;;;;;10.18;5.60;;;;;;;10.89;89.45;101471.42;1677709;85;21361;-58
2021/11/06 09:19:35;;;;;;;10.45;7.33;;;;;;;10.93;89.48;101471.47;1677255;85;21242;-58
2021/11/06 09:22:43;;;;;;;11.38;7.58;;;;;;;10.98;89.38;101482.84;1677599;84;21818;-58
2021/11/06 09:25:50;;;;;;;8.05;5.15;;;;;;;10.99;89.22;101487.33;1677504;85;21203;-60
2021/11/06 09:28:56;;;;;;;10.60;5.72;;;;;;;11.00;88.88;101478.08;1677349;84;21382;-59
2021/11/06 09:32:02;;;;;;;7.92;4.55;;;;;;;10.99;87.91;101472.25;1676996;84;21361;-58
2021/11/06 09:35:08;;;;;;;8.08;5.72;;;;;;;10.99;87.04;101477.20;1677163;85;21357;-60
2021/11/06 09:38:15;;;;;;;6.78;4.80;;;;;;;10.96;86.71;101479.38;1677097;84;21385;-59
2021/11/06 09:41:21;;;;;;;6.50;4.28;;;;;;;10.98;86.37;101478.73;1657751;85;21219;-59
2021/11/06 09:44:27;;;;;;;7.40;4.72;;;;;;;10.99;86.26;101470.88;1648880;87;21257;-59
2021/11/06 09:47:32;;;;;;;8.38;4.95;;;;;;;11.02;86.33;101474.16;1649353;85;21400;-58
2021/11/06 09:50:37;;;;;;;8.93;4.58;;;;;;;11.08;86.40;101480.92;1649211;87;21381;-61
2021/11/06 09:53:44;;;;;;;5.20;4.00;;;;;;;11.11;86.29;101476.50;1649489;85;21372;-59
2021/11/06 09:56:52;;;;;;;4.15;3.60;;;;;;;11.13;86.10;101477.22;1649439;85;21227;-58
2021/11/06 09:59:58;;;;;;;6.30;4.75;;;;;;;11.14;85.77;101470.72;1670241;85;21224;-59
2021/11/06 10:03:03;;;;;;;9.30;6.58;;;;;;;11.15;85.59;101473.80;1670113;84;21382;-59
2021/11/06 10:06:11;;;;;;;9.58;7.12;;;;;;;11.14;85.32;101470.22;1669795;86;21212;-59
2021/11/06 10:09:16;;;;;;;8.25;5.40;;;;;;;11.16;85.22;101461.84;1670133;85;21880;-58
2021/11/06 10:12:21;;;;;;;8.45;5.90;;;;;;;11.17;85.03;101475.39;1660514;86;21259;-60
2021/11/06 10:15:28;;;;;;;6.42;5.03;;;;;;;11.18;85.16;101470.25;1669612;86;21272;-59
2021/11/06 10:18:37;;;;;;;9.90;6.20;;;;;;;11.22;85.27;101458.48;1670061;85;21216;-59
2021/11/06 10:21:44;;;;;;;9.63;7.05;;;;;;;11.26;85.13;101457.14;1669867;85;21418;-58
2021/11/06 10:24:58;;;;;;;11.28;7.83;;;;;;;11.27;84.92;101442.44;1627796;88;21370;-59
2021/11/06 10:28:12;;;;;;;12.23;8.53;;;;;;;11.27;84.66;101436.45;1627965;86;21398;-59
2021/11/06 10:31:18;;;;;;;12.30;8.63;;;;;;;11.29;84.65;101430.81;1627736;88;21374;-59
2021/11/06 10:34:25;;;;;;;10.25;7.12;;;;;;;11.35;84.55;101428.82;1656085;86;21744;-58
2021/11/06 10:37:31;;;;;;;8.43;6.60;;;;;;;11.40;84.15;101433.34;1628079;87;21407;-59
2021/11/06 10:40:39;;;;;;;10.63;6.97;;;;;;;11.43;83.62;101436.60;1613136;87;21243;-59
2021/11/06 10:43:46;;;;;;;8.95;7.35;;;;;;;11.46;83.21;101431.33;1642272;86;21247;-58
2021/11/06 10:47:00;;;;;;;8.13;5.75;;;;;;;11.52;82.86;101422.47;1639738;84;21243;-60
2021/11/06 10:50:08;;;;;;;9.03;6.95;;;;;;;11.56;82.54;101407.45;1660285;85;21243;-59
2021/11/06 10:53:16;;;;;;;9.83;8.03;;;;;;;11.65;82.44;101403.78;1667331;86;21252;-60
2021/11/06 10:56:45;;;;;;;10.18;7.40;;;;;;;11.80;82.23;101417.27;1668409;86;21760;-58
2021/11/06 10:59:55;;;;;;;9.50;7.08;;;;;;;11.90;81.83;101397.48;1670824;83;21292;-58
2021/11/06 11:03:01;;;;;;;10.05;7.20;;;;;;;11.98;81.35;101406.64;1674039;84;21788;-59
2021/11/06 11:06:18;;;;;;;8.48;6.60;;;;;;;12.10;80.70;101418.20;1666260;84;21271;-58
2021/11/06 11:09:33;;;;;;;9.83;6.30;;;;;;;12.13;79.67;101422.53;1644818;87;22101;-59
2021/11/06 11:12:39;;;;;;;8.23;6.55;;;;;;;12.09;79.08;101431.59;1644696;86;21642;-59
2021/11/06 11:15:47;;;;;;;11.80;8.75;;;;;;;12.02;78.89;101427.24;1672178;84;21224;-58
2021/11/06 11:18:56;;;;;;;11.48;8.48;;;;;;;11.97;78.45;101420.53;1662852;85;21226;-59
2021/11/06 11:22:00;;;;;;;12.85;7.65;;;;;;;11.92;77.35;101414.65;1675804;85;21724;-58
2021/11/06 11:25:07;;;;;;;14.68;8.15;;;;;;;11.85;76.64;101417.66;1676513;85;21354;-59
2021/11/06 11:28:16;;;;;;;11.20;7.65;;;;;;;11.79;76.41;101413.69;1676679;85;21736;-59
2021/11/06 11:31:21;;;;;;;11.33;7.72;;;;;;;11.79;76.24;101415.06;1677014;85;21381;-60
2021/11/06 11:34:29;;;;;;;10.75;7.37;;;;;;;11.79;76.25;101404.09;1672376;84;21211;-59
2021/11/06 11:37:36;;;;;;;13.62;8.40;;;;;;;11.84;76.12;101417.33;1676807;84;21283;-60
2021/11/06 11:40:42;;;;;;;8.98;6.30;;;;;;;11.88;75.99;101407.73;1682648;84;21209;-59
2021/11/06 11:44:25;;;;;;;8.13;6.30;;;;;;;11.92;75.17;101409.16;1656112;85;21220;-59
2021/11/06 11:47:48;;;;;;;10.68;6.55;;;;;;;11.97;74.78;101409.55;1673397;84;21224;-59
2021/11/06 11:50:55;;;;;;;7.10;5.85;;;;;;;11.99;73.27;101403.36;1673352;85;21196;-59
2021/11/06 11:54:07;;;;;;;9.28;5.58;;;;;;;11.98;72.25;101405.27;1673501;84;22030;-59
2021/11/06 11:57:22;;;;;;;6.45;4.72;;;;;;;12.02;72.40;101397.05;1672804;84;21287;-59
2021/11/06 12:00:31;;;;;;;6.70;4.47;;;;;;;12.06;72.10;101403.09;1627138;84;21820;-59
2021/11/06 12:03:50;;;;;;;5.60;4.42;;;;;;;12.04;72.19;101403.25;1669720;84;21772;-60
2021/11/06 12:06:55;;;;;;;7.28;5.72;;;;;;;11.99;72.45;101406.11;1670194;84;21725;-60
2021/11/06 12:10:07;;;;;;;10.63;6.42;;;;;;;11.92;72.53;101407.79;1675321;85;21240;-58
2021/11/06 12:13:16;;;;;;;12.55;6.62;;;;;;;11.85;72.09;101401.20;1678937;84;21610;-58
2021/11/06 12:16:22;;;;;;;14.75;9.45;;;;;;;11.73;72.03;101404.70;1679065;85;21211;-58
2021/11/06 12:19:54;;;;;;;11.70;7.72;;;;;;;11.65;71.83;101403.78;1665132;85;21207;-57
2021/11/06 12:23:01;;;;;;;13.25;8.35;;;;;;;11.59;71.98;101407.97;1645694;86;21270;-59
2021/11/06 12:26:26;;;;;;;12.85;8.00;;;;;;;11.60;72.37;101410.21;1619424;88;21291;-60
2021/11/06 12:29:38;;;;;;;14.70;9.05;;;;;;;11.61;72.49;101414.66;1652655;85;21219;-60
2021/11/06 12:32:52;;;;;;;11.83;6.60;;;;;;;11.62;72.65;101424.64;1673550;84;21256;-59
2021/11/06 12:36:00;;;;;;;10.32;6.80;;;;;;;11.59;72.76;101446.36;1678370;84;21228;-58
2021/11/06 12:39:10;;;;;;;11.57;6.92;;;;;;;11.52;72.92;101443.91;1630880;87;21255;-59
2021/11/06 12:42:32;;;;;;;8.88;6.53;;;;;;;11.46;72.90;101446.41;1677426;85;21224;-59
2021/11/06 12:45:37;;;;;;;14.45;8.65;;;;;;;11.38;73.19;101438.97;1677466;85;21255;-59
2021/11/06 12:48:54;;;;;;;10.48;7.45;;;;;;;11.32;73.72;101445.05;1676702;85;21243;-59
2021/11/06 12:51:58;;;;;;;9.88;6.83;;;;;;;11.29;74.14;101445.36;1677728;85;21244;-60
2021/11/06 12:55:09;;;;;;;11.97;7.78;;;;;;;11.30;74.57;101444.86;1624893;87;21212;-59
2021/11/06 12:58:24;;;;;;;9.43;6.83;;;;;;;11.44;74.90;101434.73;1655142;86;21568;-59
2021/11/06 13:01:33;;;;;;;9.38;6.67;;;;;;;11.65;74.92;101422.45;1654307;82;21224;-59
2021/11/06 13:04:39;;;;;;;8.23;6.00;;;;;;;11.82;74.67;101424.34;1650440;86;21729;-59
2021/11/06 13:07:47;;;;;;;9.48;5.70;;;;;;;11.90;74.33;101435.89;1651726;87;21378;-59
2021/11/06 13:10:52;;;;;;;10.72;6.92;;;;;;;11.94;74.15;101437.28;1652391;87;21228;-60
2021/11/06 13:14:00;;;;;;;8.48;5.55;;;;;;;11.99;73.92;101431.68;1651924;87;21527;-60
2021/11/06 13:17:41;;;;;;;9.80;5.47;;;;;;;12.02;73.93;101426.37;1681211;84;21279;-60
2021/11/06 13:20:46;;;;;;;9.08;6.00;;;;;;;12.05;73.64;101424.17;1681266;85;21934;-59
2021/11/06 13:23:53;;;;;;;9.18;6.22;;;;;;;12.04;73.55;101437.56;1681709;84;21265;-60
2021/11/06 13:26:59;;;;;;;9.75;6.40;;;;;;;12.00;73.51;101432.02;1661392;84;21203;-59
2021/11/06 13:30:25;;;;;;;11.60;7.70;;;;;;;11.94;73.61;101419.44;1681202;84;21200;-59
2021/11/06 13:33:50;;;;;;;13.40;8.65;;;;;;;11.85;73.89;101433.63;1681713;84;21231;-59
2021/11/06 13:36:54;;;;;;;16.42;10.20;;;;;;;11.73;74.29;101439.52;1681103;84;21747;-59
2021/11/06 13:40:11;;;;;;;16.62;9.88;;;;;;;11.57;74.70;101442.07;1681234;84;21187;-59
2021/11/06 13:43:38;;;;;;;18.15;10.50;;;;;;;11.44;75.24;101445.70;1680831;84;22072;-58
2021/11/06 13:46:48;;;;;;;18.67;11.08;;;;;;;11.29;75.69;101452.75;1681436;84;21259;-59
2021/11/06 13:49:55;;;;;;;24.37;13.28;;;;;;;11.15;76.23;101457.34;1681010;84;21216;-60
2021/11/06 13:53:06;;;;;;;28.38;14.55;;;;;;;11.02;76.72;101452.77;1681665;84;21204;-60
2021/11/06 13:56:11;;;;;;;26.20;14.60;;;;;;;10.91;77.15;101437.91;1682300;84;21350;-59
2021/11/06 13:59:16;;;;;;;27.32;15.13;;;;;;;10.82;77.57;101438.79;1681818;84;21275;-60
2021/11/06 14:02:33;;;;;;;28.52;16.90;;;;;;;10.70;77.94;101424.95;1681556;83;21654;-59
2021/11/06 14:05:38;;;;;;;23.92;16.55;;;;;;;10.62;78.26;101430.32;1680501;85;21370;-59
2021/11/06 14:08:46;;;;;;;30.15;19.70;;;;;;;10.52;78.57;101435.34;1679983;84;21259;-59
2021/11/06 14:12:05;;;;;;;36.08;24.87;;;;;;;10.43;78.86;101436.74;1679940;84;21785;-59
2021/11/06 14:15:12;;;;;;;63.50;31.55;;;;;;;10.33;79.20;101446.34;1678570;85;21350;-59
2021/11/06 14:18:31;;;;;;;37.75;24.50;;;;;;;10.25;79.54;101441.25;1630830;86;21232;-60
2021/11/06 14:21:41;;;;;;;50.10;35.50;;;;;;;10.15;79.83;101438.53;1631575;87;21310;-59
2021/11/06 14:24:46;;;;;;;40.17;32.05;;;;;;;10.06;80.20;101444.86;1629554;87;21258;-59
2021/11/06 14:27:51;;;;;;;32.28;28.10;;;;;;;9.98;80.56;101439.27;1629716;86;21242;-58
2021/11/06 14:31:07;;;;;;;34.08;27.95;;;;;;;9.92;80.86;101434.38;1650986;86;21232;-59
2021/11/06 14:34:31;;;;;;;30.50;22.75;;;;;;;9.83;81.16;101434.39;1652673;85;21270;-58
2021/11/06 14:37:36;;;;;;;;;;;;;;;9.68;81.49;101425.76;1658035;84;21379;-59
2021/11/06 14:40:41;;;;;;;16.57;14.05;;;;;;;9.57;81.85;101438.70;1653287;86;20257;-59
2021/11/06 14:44:12;;;;;;;27.65;24.40;;;;;;;9.46;82.28;101436.11;1626742;88;22060;-59
2021/11/06 14:47:29;;;;;;;53.73;45.23;;;;;;;9.39;82.69;101436.34;1658900;85;21255;-58
2021/11/06 14:50:32;;;;;;;;;;;;;;;9.35;83.15;101432.15;1670054;85;21215;-59
2021/11/06 14:53:36;;;;;;;;;;;;;;;9.32;83.43;101433.31;1669089;85;20255;-58
2021/11/06 14:56:47;;;;;;;27.98;22.15;;;;;;;9.29;83.61;101440.43;1667439;85;20431;-58
2021/11/06 14:59:56;;;;;;;23.40;16.90;;;;;;;9.24;83.77;101443.21;1656214;86;21204;-58
2021/11/06 15:03:10;;;;;;;24.50;18.73;;;;;;;9.18;83.92;101449.25;1654962;85;21267;-59
2021/11/06 15:06:18;;;;;;;36.28;27.25;;;;;;;9.11;84.10;101455.77;1669130;85;21224;-59
2021/11/06 15:09:26;;;;;;;37.03;26.82;;;;;;;9.05;84.28;101464.00;1670285;85;21223;-57
2021/11/06 15:12:30;;;;;;;44.03;34.48;;;;;;;9.00;84.46;101465.45;1670163;84;21820;-59
2021/11/06 15:15:36;;;;;;;38.78;30.95;;;;;;;8.94;84.59;101476.94;1670219;85;21359;-58
2021/11/06 15:18:42;;;;;;;49.55;35.55;;;;;;;8.87;84.65;101470.28;1670195;84;21228;-58
2021/11/06 15:21:49;;;;;;;35.60;28.62;;;;;;;8.77;84.82;101470.73;1670593;84;21367;-60
2021/11/06 15:24:55;;;;;;;33.67;24.07;;;;;;;8.70;85.11;101479.13;1670621;85;21197;-59
2021/11/06 15:28:02;;;;;;;40.85;27.45;;;;;;;8.67;85.44;101468.49;1669196;85;21422;-58
2021/11/06 15:31:08;;;;;;;51.48;28.85;;;;;;;8.63;85.67;101471.11;1670386;85;21237;-59
2021/11/06 15:34:15;;;;;;;40.80;28.65;;;;;;;8.60;85.87;101485.04;1663209;85;22072;-59
2021/11/06 15:37:23;;;;;;;40.92;28.40;;;;;;;8.58;85.97;101485.17;1683844;84;21445;-59
2021/11/06 15:40:34;;;;;;;36.55;26.93;;;;;;;8.54;86.06;101495.14;1669220;85;21891;-58
2021/11/06 15:43:41;;;;;;;34.35;26.07;;;;;;;8.50;86.22;101494.54;1669895;84;21382;-58
2021/11/06 15:46:48;;;;;;;36.38;26.02;;;;;;;8.50;86.34;101493.70;1670583;84;21397;-59
2021/11/06 15:49:54;;;;;;;37.38;26.20;;;;;;;8.48;86.44;101493.80;1670258;85;21256;-58
2021/11/06 15:53:03;;;;;;;39.15;27.95;;;;;;;8.46;86.55;101507.23;1669553;84;21220;-57
2021/11/06 15:56:07;;;;;;;37.23;27.98;;;;;;;8.42;86.64;101511.24;1669669;85;21764;-58
2021/11/06 15:59:14;;;;;;;33.85;25.85;;;;;;;8.35;86.78;101510.03;1669406;85;21291;-58
2021/11/06 16:02:19;;;;;;;35.23;26.35;;;;;;;8.30;86.87;101509.08;1669591;84;21283;-57
2021/11/06 16:05:24;;;;;;;36.53;22.22;;;;;;;8.25;86.99;101514.06;1675471;83;21228;-58
2021/11/06 16:08:30;;;;;;;27.87;20.23;;;;;;;8.18;87.11;101519.64;1678537;84;21243;-58
2021/11/06 16:11:36;;;;;;;24.50;18.70;;;;;;;8.12;87.19;101515.25;1678683;85;21196;-58
2021/11/06 16:14:42;;;;;;;33.92;24.25;;;;;;;8.05;87.32;101508.09;1678384;85;21737;-57
2021/11/06 16:21:05;;;;;;;75.95;39.75;;;;;;;7.92;87.56;101510.13;1678020;85;21583;-59
2021/11/06 16:24:12;;;;;;;74.37;39.08;;;;;;;7.88;87.67;101511.37;1679882;85;21209;-59
2021/11/06 21:15:20;;;;;;;36.25;21.55;;;;;;;4.24;88.76;101599.34;1675641;81;21537;-58
2021/11/06 21:21:22;;;;;;;38.00;21.87;;;;;;;4.18;89.08;101601.12;1644189;87;21419;-59
2021/11/06 21:24:36;;;;;;;35.92;22.10;;;;;;;4.17;89.20;101602.08;1644138;87;21345;-59
2021/11/06 21:27:37;;;;;;;31.33;21.65;;;;;;;4.15;89.22;101597.75;1644224;86;21395;-59
2021/11/06 21:30:43;;;;;;;33.60;21.93;;;;;;;4.13;89.14;101591.56;1644221;87;21352;-59
2021/11/06 21:33:53;;;;;;;28.85;20.25;;;;;;;4.10;89.07;101603.49;1644155;86;21214;-58
2021/11/06 21:37:02;;;;;;;33.50;20.88;;;;;;;4.07;88.97;101598.28;1644067;86;21475;-58
2021/11/06 21:40:06;;;;;;;28.20;19.60;;;;;;;4.05;89.01;101596.16;1643109;86;21470;-58
2021/11/06 21:43:12;;;;;;;27.02;19.82;;;;;;;4.03;89.04;101591.80;1646758;86;21243;-58
2021/11/06 21:46:18;;;;;;;28.02;19.95;;;;;;;3.99;88.91;101593.00;1654863;86;21243;-59
2021/11/06 21:49:27;;;;;;;29.75;20.27;;;;;;;3.93;88.85;101588.84;1655017;86;21828;-58
2021/11/06 21:52:33;;;;;;;30.60;21.40;;;;;;;3.91;88.92;101585.41;1655365;85;21258;-59
2021/11/06 21:55:39;;;;;;;30.30;21.40;;;;;;;3.90;89.10;101586.86;1655289;86;21219;-58
2021/11/06 21:58:46;;;;;;;30.82;21.33;;;;;;;3.89;89.13;101587.34;1655251;85;21291;-59
2021/11/06 22:01:51;;;;;;;27.27;19.95;;;;;;;3.86;89.22;101592.09;1655221;85;21263;-58
2021/11/06 22:04:58;;;;;;;29.37;20.40;;;;;;;3.84;89.31;101594.91;1655345;86;21862;-58
2021/11/06 22:08:04;;;;;;;28.77;19.05;;;;;;;3.83;89.41;101594.53;1655264;85;21228;-59
2021/11/06 22:11:10;;;;;;;31.85;23.52;;;;;;;3.82;89.40;101589.22;1655442;86;21231;-59
2021/11/06 22:14:17;;;;;;;52.60;34.90;;;;;;;3.79;89.43;101584.86;1655381;86;21212;-59
2021/11/06 22:17:27;;;;;;;38.10;27.02;;;;;;;3.77;89.46;101592.24;1625349;82;21232;-59
2021/11/06 22:20:37;;;;;;;40.78;27.35;;;;;;;3.79;89.57;101583.50;1624838;88;21240;-60
2021/11/06 22:23:43;;;;;;;43.60;27.93;;;;;;;3.79;89.55;101586.22;1631611;87;21287;-58
2021/11/06 22:26:49;;;;;;;38.42;25.75;;;;;;;3.79;89.53;101590.28;1625563;87;21248;-58
2021/11/06 22:29:55;;;;;;;36.33;23.35;;;;;;;3.79;89.46;101586.72;1624799;88;21213;-58
2021/11/06 22:33:01;;;;;;;33.18;24.20;;;;;;;3.79;89.40;101597.05;1624779;87;21398;-59
2021/11/06 22:36:10;;;;;;;34.83;23.95;;;;;;;3.79;89.40;101588.08;1630898;87;21247;-58
2021/11/06 22:39:16;;;;;;;35.90;23.98;;;;;;;3.79;89.37;101584.02;1625057;87;21248;-59
2021/11/06 22:42:22;;;;;;;39.27;24.15;;;;;;;3.80;89.39;101579.84;1622648;87;21256;-58
2021/11/06 22:45:30;;;;;;;36.65;25.45;;;;;;;3.80;89.33;101570.84;1609669;87;21806;-58
2021/11/06 22:48:37;;;;;;;38.60;27.17;;;;;;;3.80;89.28;101571.72;1613244;88;21232;-59
2021/11/06 22:51:42;;;;;;;34.55;24.70;;;;;;;3.79;89.26;101577.24;1603161;86;21407;-59
2021/11/06 22:54:51;;;;;;;32.08;22.35;;;;;;;3.79;89.20;101582.66;1569747;90;21230;-59
2021/11/06 22:57:56;;;;;;;30.45;22.17;;;;;;;3.76;89.14;101588.28;1609767;87;21259;-59
2021/11/06 23:01:17;;;;;;;39.65;24.85;;;;;;;3.75;89.17;101579.76;1618895;86;21211;-59
2021/11/06 23:04:29;;;;;;;32.63;22.62;;;;;;;3.75;89.20;101576.58;1630670;87;21264;-59
2021/11/06 23:07:32;;;;;;;28.30;19.15;;;;;;;3.74;89.18;101587.00;1624958;87;21244;-59
2021/11/06 23:10:40;;;;;;;27.45;17.87;;;;;;;3.73;89.19;101573.09;1635744;86;21390;-58
2021/11/06 23:13:50;;;;;;;24.15;16.65;;;;;;;3.71;89.23;101566.91;1634585;86;21298;-58
2021/11/06 23:16:57;;;;;;;27.80;18.23;;;;;;;3.71;89.29;101576.37;1631021;85;21208;-58
2021/11/06 23:20:03;;;;;;;25.05;18.37;;;;;;;3.71;89.41;101574.19;1679616;85;21232;-58
2021/11/06 23:23:11;;;;;;;21.95;15.32;;;;;;;3.71;89.49;101574.19;1679918;84;21279;-58
2021/11/06 23:26:18;;;;;;;23.42;15.30;;;;;;;3.71;89.58;101573.67;1680125;85;21239;-58
2021/11/06 23:29:24;;;;;;;22.22;15.48;;;;;;;3.72;89.61;101576.78;1679720;85;21302;-59
2021/11/06 23:32:32;;;;;;;20.52;15.38;;;;;;;3.71;89.64;101577.73;1679799;84;21840;-58
2021/11/06 23:35:39;;;;;;;19.50;14.63;;;;;;;3.69;89.61;101572.94;1679848;85;21204;-59
2021/11/06 23:38:45;;;;;;;21.87;15.55;;;;;;;3.68;89.55;101573.88;1679801;84;21211;-58
2021/11/06 23:41:51;;;;;;;20.35;14.10;;;;;;;3.66;89.55;101571.79;1679705;84;21765;-59
2021/11/06 23:44:57;;;;;;;19.62;15.03;;;;;;;3.65;89.47;101572.73;1680053;85;21223;-58
2021/11/06 23:48:05;;;;;;;19.87;14.55;;;;;;;3.62;89.44;101572.95;1679920;84;21196;-58